Time;durP1;ratioP1;P1;durP2;ratioP2;P2;SDS_P1;SDS_P2;PMS_P1;PMS_P2;Temp;Humidity;BMP_temperature;BMP_pressure;BME280_temperature;BME280_humidity;BME280_pressure;Samples;Min_cycle;Max_cycle;Signal;HPM_P1;HPM_P2
2022/08/21 00:01:36;;;;;;;2.70;1.40;;;14.10;99.90;;;;;;5031719;28;20860;-54
2022/08/21 00:04:06;;;;;;;;;;;14.10;99.90;;;;;;5032882;28;20064;-53
2022/08/21 00:06:33;;;;;;;2.63;1.40;;;14.10;99.90;;;;;;5032055;28;19921;-54
2022/08/21 00:09:02;;;;;;;1.33;1.20;;;14.10;99.90;;;;;;5030580;28;20048;-53
2022/08/21 00:11:36;;;;;;;4.43;1.42;;;14.00;99.90;;;;;;5032589;28;20102;-54
2022/08/21 00:14:04;;;;;;;1.83;1.50;;;14.00;99.90;;;;;;5030405;28;20044;-54
2022/08/21 00:16:31;;;;;;;2.35;1.40;;;14.00;99.90;;;;;;5032688;28;20110;-54
2022/08/21 00:18:58;;;;;;;2.05;1.23;;;14.00;99.90;;;;;;5031665;28;20049;-53
2022/08/21 00:21:25;;;;;;;5.10;1.40;;;13.90;99.90;;;;;;5032311;28;20045;-53
2022/08/21 00:23:52;;;;;;;2.63;1.25;;;13.90;99.90;;;;;;5031781;28;20076;-55
2022/08/21 00:26:19;;;;;;;1.48;1.23;;;13.90;99.90;;;;;;5031861;28;20364;-54
2022/08/21 00:28:48;;;;;;;2.13;1.30;;;13.80;99.90;;;;;;5029695;28;20049;-53
2022/08/21 00:31:16;;;;;;;2.53;1.40;;;13.80;99.90;;;;;;5031275;28;20450;-53
2022/08/21 00:33:43;;;;;;;1.20;1.10;;;13.80;99.90;;;;;;5032030;28;20045;-54
2022/08/21 00:36:10;;;;;;;1.55;1.45;;;13.70;99.90;;;;;;5013986;28;20869;-53
2022/08/21 00:38:37;;;;;;;1.25;1.15;;;13.70;99.90;;;;;;5012069;28;20064;-54
2022/08/21 00:41:05;;;;;;;;;;;13.70;99.90;;;;;;5018919;28;20080;-53
2022/08/21 00:43:54;;;;;;;1.92;1.45;;;13.70;99.90;;;;;;5028724;28;20358;-53
2022/08/21 00:46:21;;;;;;;1.42;1.33;;;13.70;99.90;;;;;;5032083;28;20048;-54
2022/08/21 00:48:53;;;;;;;1.13;1.02;;;13.70;99.90;;;;;;5031255;28;20812;-54
2022/08/21 00:51:51;;;;;;;1.48;1.38;;;13.70;99.90;;;;;;5032081;28;20196;-54
2022/08/21 00:54:20;;;;;;;4.10;1.20;;;13.60;99.90;;;;;;5026876;28;20053;-54
2022/08/21 00:56:58;;;;;;;3.28;1.55;;;13.60;99.90;;;;;;5031928;28;20048;-54
2022/08/21 00:59:29;;;;;;;2.33;1.08;;;13.60;99.90;;;;;;5030445;28;20041;-54
2022/08/21 01:01:56;;;;;;;1.05;1.02;;;13.60;99.90;;;;;;5030963;28;20705;-54
2022/08/21 01:04:22;;;;;;;;;;;13.60;99.90;;;;;;5032930;28;20491;-54
2022/08/21 01:06:51;;;;;;;1.50;1.20;;;13.50;99.90;;;;;;5031106;28;19925;-54
2022/08/21 01:09:18;;;;;;;2.03;1.30;;;13.50;99.90;;;;;;5031228;28;20463;-52
2022/08/21 01:11:46;;;;;;;1.55;0.77;;;13.50;99.90;;;;;;5030757;28;20045;-53
2022/08/21 01:14:13;;;;;;;0.98;0.98;;;13.50;99.90;;;;;;5022691;28;20065;-54
2022/08/21 01:16:46;;;;;;;2.90;1.08;;;13.50;99.90;;;;;;5011377;28;20057;-54
2022/08/21 01:19:14;;;;;;;1.20;1.10;;;13.50;99.90;;;;;;5011489;28;20046;-54
2022/08/21 01:21:41;;;;;;;1.35;1.10;;;13.50;99.90;;;;;;5011907;28;20037;-52
2022/08/21 01:24:10;;;;;;;1.15;0.98;;;13.40;99.90;;;;;;5010776;28;20137;-54
2022/08/21 01:26:37;;;;;;;1.42;1.33;;;13.40;99.90;;;;;;5012100;28;21057;-55
2022/08/21 01:29:15;;;;;;;1.90;1.20;;;13.40;99.90;;;;;;5008965;28;20069;-55
2022/08/21 01:31:43;;;;;;;6.55;1.10;;;13.40;99.90;;;;;;5011601;28;20804;-54
2022/08/21 01:34:10;;;;;;;1.52;0.95;;;13.40;99.90;;;;;;5011972;28;20107;-55
2022/08/21 01:36:37;;;;;;;0.80;0.80;;;13.30;99.90;;;;;;5018380;28;20106;-54
2022/08/21 01:39:05;;;;;;;7.85;1.33;;;13.30;99.90;;;;;;5014090;28;20045;-54
2022/08/21 01:41:32;;;;;;;3.90;1.13;;;13.30;99.90;;;;;;5026150;28;20102;-54
2022/08/21 01:43:59;;;;;;;2.90;1.00;;;13.30;99.90;;;;;;5032895;28;20045;-53
2022/08/21 01:46:26;;;;;;;;;;;13.30;99.90;;;;;;5035016;28;20044;-54
2022/08/21 01:48:53;;;;;;;3.05;1.10;;;13.30;99.90;;;;;;5035609;28;19925;-53
2022/08/21 01:51:19;;;;;;;;;;;13.30;99.90;;;;;;5034529;28;20072;-53
2022/08/21 01:53:46;;;;;;;2.08;1.23;;;13.20;99.90;;;;;;5034323;28;19920;-54
2022/08/21 01:56:15;;;;;;;;;;;13.20;99.90;;;;;;5034570;28;20064;-52
2022/08/21 01:58:44;;;;;;;1.42;1.00;;;13.20;99.90;;;;;;5034054;28;19925;-54
2022/08/21 02:01:11;;;;;;;2.53;1.35;;;13.20;99.90;;;;;;5032257;28;20052;-53
2022/08/21 02:03:38;;;;;;;4.07;1.40;;;13.20;99.90;;;;;;5034065;28;20053;-53
2022/08/21 02:06:06;;;;;;;1.98;1.10;;;13.20;99.90;;;;;;5034715;28;20045;-54
2022/08/21 02:08:34;;;;;;;2.03;1.02;;;13.10;99.90;;;;;;5032141;28;20074;-53
2022/08/21 02:11:01;;;;;;;7.72;1.85;;;13.10;99.90;;;;;;5034286;28;20041;-54
2022/08/21 02:13:27;;;;;;;2.08;1.00;;;13.10;99.90;;;;;;5032488;28;21005;-55
2022/08/21 02:15:54;;;;;;;6.95;1.63;;;13.10;99.90;;;;;;5014390;28;20639;-51
2022/08/21 02:18:21;;;;;;;;;;;13.10;99.90;;;;;;5013862;28;20609;-54
2022/08/21 02:20:49;;;;;;;1.25;1.08;;;13.10;99.90;;;;;;4996308;28;19932;-54
2022/08/21 02:23:23;;;;;;;1.05;1.05;;;13.10;99.90;;;;;;5013803;28;20052;-53
2022/08/21 02:26:00;;;;;;;5.00;1.38;;;13.10;99.90;;;;;;5014016;28;20887;-53
2022/08/21 02:28:26;;;;;;;2.17;1.25;;;13.10;99.90;;;;;;5014015;28;20057;-55
2022/08/21 02:30:54;;;;;;;;;;;13.00;99.90;;;;;;4995470;28;20045;-51
2022/08/21 02:33:21;;;;;;;1.13;1.00;;;13.00;99.90;;;;;;5013667;28;19932;-55
2022/08/21 02:35:49;;;;;;;1.27;1.17;;;13.00;99.90;;;;;;5021960;28;20589;-53
2022/08/21 02:38:22;;;;;;;0.80;0.80;;;13.00;99.90;;;;;;5015480;28;20123;-55
2022/08/21 02:40:50;;;;;;;1.83;1.08;;;13.00;99.90;;;;;;5019088;28;20049;-54
2022/08/21 02:43:19;;;;;;;1.13;0.90;;;12.90;99.90;;;;;;5032611;28;20835;-54
2022/08/21 02:45:47;;;;;;;2.95;1.30;;;13.00;99.90;;;;;;5032454;28;20102;-52
2022/08/21 02:48:18;;;;;;;1.20;1.10;;;12.90;99.90;;;;;;5032990;28;20118;-53
2022/08/21 02:51:13;;;;;;;2.63;1.45;;;12.90;99.90;;;;;;5034052;28;20149;-54
2022/08/21 02:53:41;;;;;;;2.13;1.20;;;12.90;99.90;;;;;;5032253;28;20040;-54
2022/08/21 02:56:12;;;;;;;1.20;1.10;;;12.90;99.90;;;;;;5033786;28;20140;-51
2022/08/21 02:58:42;;;;;;;0.90;0.80;;;12.90;99.90;;;;;;5032714;28;20044;-53
2022/08/21 03:01:10;;;;;;;3.60;1.30;;;13.00;99.90;;;;;;5023060;28;20057;-54
2022/08/21 03:03:41;;;;;;;10.50;1.35;;;13.00;99.90;;;;;;5026283;28;20049;-54
2022/08/21 03:06:09;;;;;;;2.58;1.20;;;12.90;99.90;;;;;;5033250;28;20110;-54
2022/08/21 03:08:37;;;;;;;8.00;1.33;;;12.90;99.90;;;;;;5032814;28;20049;-54
2022/08/21 03:11:04;;;;;;;2.72;1.10;;;12.90;99.90;;;;;;5032766;28;20060;-53
2022/08/21 03:13:33;;;;;;;1.13;0.95;;;12.90;99.90;;;;;;5031342;28;20045;-53
2022/08/21 03:16:00;;;;;;;1.10;1.02;;;12.90;99.90;;;;;;5011448;28;20604;-54
2022/08/21 03:18:29;;;;;;;4.35;0.90;;;12.90;99.90;;;;;;5013625;28;20131;-55
2022/08/21 03:20:56;;;;;;;2.08;1.15;;;12.90;99.90;;;;;;5014199;28;20652;-54
2022/08/21 03:23:23;;;;;;;;;;;12.90;99.90;;;;;;5013407;28;20049;-52
2022/08/21 03:25:50;;;;;;;1.30;1.20;;;12.80;99.90;;;;;;5013365;28;19925;-50
2022/08/21 03:28:21;;;;;;;1.42;1.33;;;12.80;99.90;;;;;;5011592;28;20107;-51
2022/08/21 03:30:51;;;;;;;1.08;1.00;;;12.80;99.90;;;;;;5011907;28;20038;-54
2022/08/21 03:33:18;;;;;;;0.75;0.70;;;12.80;99.90;;;;;;5013178;28;20095;-55
2022/08/21 03:36:00;;;;;;;1.38;1.02;;;12.80;99.90;;;;;;5020584;28;20569;-53
2022/08/21 03:38:29;;;;;;;1.33;1.00;;;12.70;99.90;;;;;;5021170;28;20073;-54
2022/08/21 03:40:56;;;;;;;1.27;0.80;;;12.70;99.90;;;;;;5019090;28;20067;-53
2022/08/21 03:43:23;;;;;;;2.10;0.98;;;12.70;99.90;;;;;;5033778;28;20616;-53
2022/08/21 03:45:50;;;;;;;;;;;12.60;99.90;;;;;;5032991;28;20111;-55
2022/08/21 03:48:19;;;;;;;2.05;1.00;;;12.70;99.90;;;;;;5034053;28;19942;-54
2022/08/21 03:50:47;;;;;;;3.45;1.35;;;12.60;99.90;;;;;;5032869;28;20071;-54
2022/08/21 03:53:15;;;;;;;0.73;0.73;;;12.60;99.90;;;;;;5032808;28;20049;-54
2022/08/21 03:55:49;;;;;;;5.75;1.60;;;12.60;99.90;;;;;;5031861;28;20190;-53
2022/08/21 03:58:18;;;;;;;3.05;1.10;;;12.50;99.90;;;;;;5032740;28;20037;-53
2022/08/21 04:00:55;;;;;;;0.93;0.93;;;12.50;99.90;;;;;;5030216;28;20272;-53
2022/08/21 04:03:23;;;;;;;1.25;1.10;;;12.50;99.90;;;;;;5015253;28;20057;-56
2022/08/21 04:05:51;;;;;;;1.83;1.08;;;12.50;99.90;;;;;;5033138;28;20048;-53
2022/08/21 04:08:18;;;;;;;3.33;1.30;;;12.50;99.90;;;;;;5033065;28;20053;-53
2022/08/21 04:10:49;;;;;;;1.20;1.10;;;12.50;99.90;;;;;;5031215;28;20118;-54
2022/08/21 04:13:19;;;;;;;2.88;1.08;;;12.50;99.90;;;;;;5030723;28;20539;-55
2022/08/21 04:15:47;;;;;;;1.10;1.00;;;12.40;99.90;;;;;;5010136;28;20715;-54
2022/08/21 04:18:15;;;;;;;0.90;0.90;;;12.50;99.90;;;;;;5010898;28;20073;-54
2022/08/21 04:20:46;;;;;;;0.98;0.98;;;12.40;99.90;;;;;;4994367;28;20060;-54
2022/08/21 04:23:20;;;;;;;2.08;1.10;;;12.50;99.90;;;;;;5012226;28;20044;-54
2022/08/21 04:25:51;;;;;;;0.98;0.98;;;12.40;99.90;;;;;;5011969;28;20064;-54
2022/08/21 04:28:19;;;;;;;1.20;1.10;;;12.40;99.90;;;;;;5011502;28;20495;-53
2022/08/21 04:30:47;;;;;;;1.20;1.10;;;12.40;99.90;;;;;;4994176;28;20046;-54
2022/08/21 04:33:14;;;;;;;1.23;1.13;;;12.40;99.90;;;;;;5010418;28;20045;-55
2022/08/21 04:35:41;;;;;;;;;;;12.40;99.90;;;;;;5018862;28;20045;-55
2022/08/21 04:38:09;;;;;;;1.17;1.08;;;12.40;99.90;;;;;;5031077;28;20571;-53
2022/08/21 04:40:36;;;;;;;1.27;1.17;;;12.40;99.90;;;;;;5013954;28;20041;-52
2022/08/21 04:43:06;;;;;;;1.27;1.00;;;12.40;99.90;;;;;;5031586;28;20049;-53
2022/08/21 04:45:38;;;;;;;0.80;0.80;;;12.40;99.90;;;;;;5030449;28;20056;-54
2022/08/21 04:48:07;;;;;;;1.63;1.30;;;12.40;99.90;;;;;;5033052;28;20710;-54
2022/08/21 04:50:53;;;;;;;1.42;0.90;;;12.40;99.90;;;;;;5032943;28;20052;-55
2022/08/21 04:53:40;;;;;;;1.00;0.90;;;12.40;99.90;;;;;;5014870;28;20129;-55
2022/08/21 04:56:13;;;;;;;4.75;1.48;;;12.40;99.90;;;;;;5031662;28;20825;-52
2022/08/21 04:58:41;;;;;;;2.22;1.40;;;12.40;99.90;;;;;;5033280;28;20045;-53
2022/08/21 05:01:15;;;;;;;2.22;0.88;;;12.40;99.90;;;;;;5013087;28;20160;-52
2022/08/21 05:03:48;;;;;;;3.13;0.90;;;12.40;99.90;;;;;;5031362;28;20106;-54
2022/08/21 05:06:17;;;;;;;1.05;0.95;;;12.40;99.90;;;;;;5032746;28;20056;-54
2022/08/21 05:08:48;;;;;;;3.03;0.93;;;12.40;99.90;;;;;;5016186;28;20147;-53
2022/08/21 05:11:15;;;;;;;1.40;1.00;;;12.40;99.90;;;;;;5035655;28;20045;-54
2022/08/21 05:13:42;;;;;;;1.50;0.88;;;12.50;99.90;;;;;;5031083;28;20037;-54
2022/08/21 05:16:09;;;;;;;1.33;1.00;;;12.50;99.90;;;;;;5011957;28;20757;-51
2022/08/21 05:18:38;;;;;;;0.90;0.90;;;12.50;99.90;;;;;;5014325;28;20053;-54
2022/08/21 05:21:06;;;;;;;1.20;1.10;;;12.50;99.90;;;;;;4996780;28;20803;-53
2022/08/21 05:23:33;;;;;;;5.00;1.23;;;12.60;99.90;;;;;;5014005;28;20049;-52
2022/08/21 05:26:00;;;;;;;2.00;1.60;;;12.60;99.90;;;;;;5014114;28;20088;-52
2022/08/21 05:28:27;;;;;;;1.27;1.17;;;12.60;99.90;;;;;;5015779;28;20060;-53
2022/08/21 05:30:54;;;;;;;2.22;1.10;;;12.60;99.90;;;;;;5013645;28;20045;-54
2022/08/21 05:33:21;;;;;;;6.35;1.23;;;12.60;99.90;;;;;;5014701;28;20269;-53
2022/08/21 05:35:52;;;;;;;1.55;1.40;;;12.60;99.90;;;;;;5021262;28;20044;-53
2022/08/21 05:38:20;;;;;;;0.88;0.88;;;12.70;99.90;;;;;;5031332;28;20037;-52
2022/08/21 05:40:47;;;;;;;;;;;12.70;99.90;;;;;;5021027;28;20072;-60
2022/08/21 05:43:15;;;;;;;1.50;1.30;;;12.80;99.90;;;;;;5018668;28;19998;-50
2022/08/21 05:45:43;;;;;;;1.40;1.30;;;12.80;99.90;;;;;;5025485;28;20053;-52
2022/08/21 05:48:14;;;;;;;2.40;1.58;;;12.90;99.90;;;;;;5028722;28;20856;-54
2022/08/21 05:50:43;;;;;;;0.98;0.95;;;13.00;99.90;;;;;;5034115;28;20040;-53
2022/08/21 05:53:12;;;;;;;1.85;1.30;;;13.00;99.90;;;;;;5031756;28;20045;-52
2022/08/21 05:55:40;;;;;;;3.90;0.85;;;13.10;99.90;;;;;;5035684;28;20160;-53
2022/08/21 05:58:20;;;;;;;1.25;1.15;;;13.20;99.90;;;;;;5033720;28;20060;-53
2022/08/21 06:00:49;;;;;;;1.13;1.10;;;13.30;99.90;;;;;;5017472;28;20045;-54
2022/08/21 06:03:20;;;;;;;2.63;1.30;;;13.40;99.90;;;;;;5035400;28;20053;-53
2022/08/21 06:05:47;;;;;;;1.60;1.20;;;13.50;99.90;;;;;;5036141;28;20049;-53
2022/08/21 06:08:16;;;;;;;1.27;1.10;;;13.60;99.90;;;;;;5034790;28;20045;-54
2022/08/21 06:10:44;;;;;;;1.65;1.52;;;13.70;99.90;;;;;;5036269;28;20037;-54
2022/08/21 06:13:12;;;;;;;1.23;1.17;;;13.90;99.90;;;;;;5034755;28;20110;-53
2022/08/21 06:15:39;;;;;;;1.85;1.27;;;14.00;99.90;;;;;;5033539;28;20123;-55
2022/08/21 06:18:07;;;;;;;2.97;2.30;;;14.10;99.90;;;;;;5036238;28;20120;-54
2022/08/21 06:20:34;;;;;;;3.88;2.90;;;14.20;99.90;;;;;;5033134;28;20053;-53
2022/08/21 06:23:02;;;;;;;5.13;4.55;;;14.30;99.90;;;;;;5035389;28;20667;-56
2022/08/21 06:25:29;;;;;;;7.78;6.45;;;14.40;99.90;;;;;;5031252;28;20040;-55
2022/08/21 06:28:07;;;;;;;10.15;6.80;;;14.60;99.90;;;;;;5031560;28;20049;-54
2022/08/21 06:30:36;;;;;;;10.82;8.07;;;14.70;99.90;;;;;;5029598;28;20039;-52
2022/08/21 06:33:03;;;;;;;7.15;5.47;;;14.80;99.90;;;;;;5031793;28;20531;-53
2022/08/21 06:35:30;;;;;;;5.18;4.57;;;14.90;99.90;;;;;;5030446;28;20033;-52
2022/08/21 06:37:57;;;;;;;3.58;3.05;;;15.00;99.90;;;;;;5031780;28;20041;-53
2022/08/21 06:40:26;;;;;;;3.08;2.35;;;15.10;99.90;;;;;;5030391;28;20045;-53
2022/08/21 06:42:57;;;;;;;2.30;2.10;;;15.10;99.90;;;;;;5014113;28;20899;-53
2022/08/21 06:45:24;;;;;;;2.00;1.88;;;15.20;99.90;;;;;;5010818;28;20041;-53
2022/08/21 06:47:54;;;;;;;1.77;1.67;;;15.30;99.90;;;;;;5013857;28;20067;-53
2022/08/21 06:50:21;;;;;;;4.05;1.90;;;15.40;99.90;;;;;;4989821;28;20589;-53
2022/08/21 06:52:48;;;;;;;3.17;2.35;;;15.40;99.90;;;;;;5035315;28;20495;-53
2022/08/21 06:55:15;;;;;;;;;;;15.50;99.90;;;;;;5035960;28;20048;-53
2022/08/21 06:57:49;;;;;;;2.03;1.55;;;15.60;99.90;;;;;;5029109;28;19924;-50
2022/08/21 07:00:19;;;;;;;3.05;1.90;;;15.60;99.90;;;;;;5028690;28;20045;-52
2022/08/21 07:02:46;;;;;;;3.45;2.20;;;15.70;99.90;;;;;;5037291;28;20060;-51
2022/08/21 07:05:13;;;;;;;;;;;15.80;99.90;;;;;;5032930;28;20803;-53
2022/08/21 07:07:45;;;;;;;3.55;2.83;;;15.90;99.90;;;;;;5035019;28;19972;-52
2022/08/21 07:10:14;;;;;;;3.70;3.00;;;16.00;99.90;;;;;;5033638;28;20040;-52
2022/08/21 07:12:49;;;;;;;6.65;4.35;;;16.00;99.90;;;;;;5034014;28;20045;-57
2022/08/21 07:15:18;;;;;;;6.78;5.63;;;16.20;99.90;;;;;;5015830;28;20195;-58
2022/08/21 07:17:45;;;;;;;7.15;5.65;;;16.30;99.90;;;;;;5033410;28;20195;-52
2022/08/21 07:20:12;;;;;;;6.95;6.22;;;16.50;99.90;;;;;;5034351;28;20040;-53
2022/08/21 07:22:40;;;;;;;7.82;6.72;;;16.60;99.90;;;;;;5030355;28;20044;-53
2022/08/21 07:25:08;;;;;;;9.77;6.93;;;16.70;99.90;;;;;;5030914;28;20041;-53
2022/08/21 07:27:35;;;;;;;9.40;7.50;;;16.80;99.90;;;;;;5030861;28;20562;-53
2022/08/21 07:30:03;;;;;;;8.23;6.55;;;16.80;99.90;;;;;;5030137;28;20044;-56
2022/08/21 07:32:30;;;;;;;8.60;7.30;;;16.90;99.90;;;;;;5028786;28;20091;-52
2022/08/21 07:34:57;;;;;;;7.60;6.80;;;17.00;99.90;;;;;;5030283;28;20045;-53
2022/08/21 07:37:24;;;;;;;9.73;8.48;;;17.00;99.90;;;;;;5029462;28;20040;-53
2022/08/21 07:39:52;;;;;;;8.93;8.05;;;17.10;99.90;;;;;;5031996;28;20115;-52
2022/08/21 07:42:18;;;;;;;9.85;8.45;;;17.20;99.90;;;;;;5032100;28;20045;-53
2022/08/21 07:44:45;;;;;;;11.85;8.55;;;17.40;99.90;;;;;;5030509;28;20514;-52
2022/08/21 07:47:15;;;;;;;8.20;7.40;;;17.60;99.90;;;;;;5031619;28;20036;-51
2022/08/21 07:50:03;;;;;;;8.63;7.70;;;17.80;99.90;;;;;;5031978;28;20187;-52
2022/08/21 07:52:30;;;;;;;9.95;7.10;;;18.10;99.90;;;;;;5029428;28;20068;-53
2022/08/21 07:54:59;;;;;;;6.32;5.72;;;18.40;99.90;;;;;;5027480;28;20041;-55
2022/08/21 07:57:31;;;;;;;6.88;6.18;;;19.20;99.90;;;;;;5031362;28;20045;-54
2022/08/21 07:59:58;;;;;;;7.30;6.15;;;19.70;99.90;;;;;;5027704;28;20052;-47
2022/08/21 08:02:28;;;;;;;6.90;6.10;;;20.40;99.90;;;;;;5026896;28;20048;-46
2022/08/21 08:05:03;;;;;;;5.40;4.90;;;20.50;99.90;;;;;;5029272;28;20059;-62
2022/08/21 08:07:32;;;;;;;5.55;4.95;;;20.50;99.90;;;;;;5029525;28;20072;-58
2022/08/21 08:09:59;;;;;;;5.25;4.72;;;20.50;99.90;;;;;;5028440;28;20079;-47
2022/08/21 08:12:29;;;;;;;3.88;3.55;;;20.90;99.90;;;;;;5027573;28;20112;-46
2022/08/21 08:14:57;;;;;;;3.92;3.30;;;21.40;99.90;;;;;;5021419;28;20044;-47
2022/08/21 08:17:24;;;;;;;4.22;3.85;;;22.10;99.90;;;;;;5009414;28;20767;-54
2022/08/21 08:19:51;;;;;;;4.25;3.88;;;22.60;99.90;;;;;;5011642;28;20049;-55
2022/08/21 08:22:23;;;;;;;3.47;3.17;;;23.00;99.90;;;;;;5011974;28;20041;-54
2022/08/21 08:24:51;;;;;;;3.42;3.13;;;23.50;99.90;;;;;;5011161;28;20594;-60
2022/08/21 08:27:20;;;;;;;3.78;3.45;;;23.90;99.90;;;;;;5012082;28;20050;-53
2022/08/21 08:29:47;;;;;;;3.85;3.45;;;24.10;99.90;;;;;;5011750;28;20054;-53
2022/08/21 08:32:14;;;;;;;3.13;2.63;;;24.30;99.90;;;;;;5012039;28;20140;-53
2022/08/21 08:34:41;;;;;;;5.45;2.47;;;24.40;99.90;;;;;;5009911;28;20045;-53
2022/08/21 08:37:09;;;;;;;2.95;2.28;;;24.50;99.90;;;;;;5031044;28;20048;-53
2022/08/21 08:39:36;;;;;;;3.17;2.85;;;24.60;99.90;;;;;;5033521;28;20537;-53
2022/08/21 08:42:13;;;;;;;3.28;2.35;;;24.70;99.90;;;;;;5031451;28;20686;-52
2022/08/21 08:45:12;;;;;;;2.58;2.30;;;24.90;99.90;;;;;;5035685;28;20059;-54
2022/08/21 08:47:58;;;;;;;2.95;2.65;;;25.00;99.90;;;;;;5036684;28;20148;-49
2022/08/21 08:50:43;;;;;;;4.25;2.45;;;25.10;99.90;;;;;;5038318;28;20037;-50
2022/08/21 08:53:20;;;;;;;3.15;2.20;;;25.20;99.90;;;;;;5036440;28;20053;-51
2022/08/21 08:55:51;;;;;;;2.88;2.20;;;25.30;99.90;;;;;;5038146;28;20122;-51
2022/08/21 08:58:33;;;;;;;2.72;2.20;;;25.40;99.90;;;;;;5038113;28;20132;-52
2022/08/21 09:01:01;;;;;;;1.80;1.70;;;25.30;99.90;;;;;;5035423;28;20052;-51
2022/08/21 09:03:28;;;;;;;2.22;2.10;;;25.30;99.90;;;;;;5035946;28;20049;-53
2022/08/21 09:06:20;;;;;;;4.53;2.10;;;25.30;99.90;;;;;;5035302;28;20411;-51
2022/08/21 09:09:04;;;;;;;3.40;1.83;;;25.30;99.90;;;;;;5037780;28;20202;-54
2022/08/21 09:11:36;;;;;;;2.08;1.50;;;25.50;99.90;;;;;;5035986;28;20124;-53
2022/08/21 09:14:22;;;;;;;2.00;1.80;;;25.60;99.90;;;;;;5030625;28;20813;-52
2022/08/21 09:17:02;;;;;;;1.98;1.67;;;25.70;99.90;;;;;;5011306;28;20782;-53
2022/08/21 09:20:18;;;;;;;1.60;1.50;;;25.90;99.90;;;;;;5015700;28;20734;-54
2022/08/21 09:23:04;;;;;;;1.92;1.20;;;26.10;99.90;;;;;;5013875;28;20079;-52
2022/08/21 09:25:38;;;;;;;7.00;1.80;;;26.30;99.90;;;;;;5014994;28;20130;-61
2022/08/21 09:28:12;;;;;;;2.15;1.98;;;26.40;99.90;;;;;;5017505;28;20075;-55
2022/08/21 09:30:41;;;;;;;1.98;1.73;;;26.40;99.90;;;;;;5019663;28;20049;-54
2022/08/21 09:33:11;;;;;;;1.40;1.30;;;26.30;99.90;;;;;;5018958;28;20865;-55
2022/08/21 09:35:52;;;;;;;1.83;1.40;;;26.40;99.90;;;;;;5024550;28;20049;-55
2022/08/21 09:38:34;;;;;;;3.95;1.33;;;26.50;99.90;;;;;;5039340;28;20037;-55
2022/08/21 09:41:05;;;;;;;1.55;1.45;;;26.60;99.90;;;;;;5039347;28;20563;-56
2022/08/21 09:43:32;;;;;;;2.28;1.40;;;26.80;99.90;;;;;;5039325;28;20857;-56
2022/08/21 09:46:19;;;;;;;1.23;1.13;;;27.00;99.90;;;;;;5037020;28;20040;-55
2022/08/21 09:48:49;;;;;;;2.70;1.38;;;27.10;99.80;;;;;;5039798;28;20037;-56
2022/08/21 09:51:29;;;;;;;1.35;1.20;;;27.20;99.90;;;;;;5039047;28;20472;-55
2022/08/21 09:54:05;;;;;;;2.28;1.15;;;27.30;99.90;;;;;;5038392;28;20049;-55
2022/08/21 09:59:32;;;;;;;1.40;1.30;;;27.50;90.30;;;;;;5039614;28;20041;-56
2022/08/21 10:02:29;;;;;;;1.65;0.95;;;27.60;93.00;;;;;;5036605;28;20514;-56
2022/08/21 10:05:00;;;;;;;0.80;0.80;;;27.70;86.60;;;;;;5036734;28;20068;-56
2022/08/21 10:07:29;;;;;;;0.82;0.82;;;27.80;88.40;;;;;;5038309;28;20060;-56
2022/08/21 10:10:13;;;;;;;0.80;0.80;;;28.00;89.10;;;;;;5039089;28;20736;-54
2022/08/21 10:13:05;;;;;;;0.85;0.85;;;28.00;77.20;;;;;;5038620;28;20037;-57
2022/08/21 10:15:56;;;;;;;1.35;0.60;;;28.00;82.00;;;;;;5021831;28;20396;-55
2022/08/21 10:18:41;;;;;;;0.60;0.60;;;28.10;71.90;;;;;;5017005;28;20095;-57
2022/08/21 10:21:27;;;;;;;0.80;0.77;;;28.10;75.90;;;;;;5018844;28;20151;-56
2022/08/21 10:24:06;;;;;;;1.10;0.95;;;28.10;71.50;;;;;;5017935;28;20041;-56
2022/08/21 10:26:52;;;;;;;1.05;0.80;;;27.90;69.30;;;;;;5018296;28;20042;-56
2022/08/21 10:29:36;;;;;;;0.90;0.80;;;27.60;74.00;;;;;;5017095;28;20037;-57
2022/08/21 10:32:27;;;;;;;1.77;1.20;;;27.40;79.50;;;;;;5018576;28;20049;-56
2022/08/21 10:35:04;;;;;;;2.28;0.90;;;27.30;77.00;;;;;;5017851;28;20045;-56
2022/08/21 10:37:40;;;;;;;;;;;27.30;81.50;;;;;;5039182;28;20126;-56
2022/08/21 10:40:18;;;;;;;2.25;1.00;;;27.40;80.20;;;;;;5037915;28;19924;-57
2022/08/21 10:43:01;;;;;;;0.82;0.82;;;27.40;74.50;;;;;;5032751;28;20048;-56
2022/08/21 10:45:51;;;;;;;1.02;0.85;;;27.40;70.70;;;;;;5036515;28;20773;-55
2022/08/21 10:48:29;;;;;;;2.78;0.93;;;27.40;65.90;;;;;;5038195;28;20812;-56
2022/08/21 10:51:51;;;;;;;2.15;0.85;;;27.40;65.90;;;;;;5036504;28;20045;-53
2022/08/21 10:54:39;;;;;;;2.63;1.35;;;27.50;63.10;;;;;;5034541;28;20064;-55
2022/08/21 10:57:15;;;;;;;2.67;1.00;;;27.60;67.70;;;;;;5034966;28;20095;-54
2022/08/21 11:00:05;;;;;;;1.33;0.75;;;27.50;66.40;;;;;;5036764;28;20064;-55
2022/08/21 11:02:40;;;;;;;0.47;0.47;;;27.60;69.70;;;;;;5037558;28;20094;-58
2022/08/21 11:05:30;;;;;;;1.45;0.77;;;27.60;66.90;;;;;;5037467;28;20033;-54
2022/08/21 11:08:10;;;;;;;1.17;0.90;;;27.60;67.10;;;;;;5036111;28;20052;-53
2022/08/21 11:10:45;;;;;;;1.75;1.27;;;27.60;66.90;;;;;;5037610;28;20095;-55
2022/08/21 11:13:32;;;;;;;2.22;1.15;;;27.70;71.60;;;;;;5036525;28;20200;-56
2022/08/21 11:16:11;;;;;;;4.88;0.85;;;27.70;65.00;;;;;;5017864;28;20148;-57
2022/08/21 11:18:44;;;;;;;0.80;0.80;;;27.60;67.60;;;;;;5014100;28;20100;-55
2022/08/21 11:21:47;;;;;;;1.10;0.65;;;27.70;67.90;;;;;;5016891;28;20045;-55
2022/08/21 11:24:20;;;;;;;1.52;0.88;;;27.70;65.90;;;;;;5011072;28;20068;-56
2022/08/21 11:26:59;;;;;;;1.23;0.90;;;27.70;65.10;;;;;;5017749;28;20049;-56
2022/08/21 11:29:34;;;;;;;2.83;0.90;;;27.70;65.10;;;;;;5015884;28;20115;-58
2022/08/21 11:32:07;;;;;;;1.05;0.93;;;27.70;67.60;;;;;;5017453;28;20045;-56
2022/08/21 11:35:10;;;;;;;0.60;0.60;;;27.70;64.50;;;;;;5016793;28;20107;-56
2022/08/21 11:37:55;;;;;;;0.80;0.60;;;27.80;64.40;;;;;;5011001;28;20048;-56
2022/08/21 11:40:35;;;;;;;1.83;0.80;;;27.70;64.80;;;;;;5037156;28;20063;-56
2022/08/21 11:43:07;;;;;;;1.08;0.90;;;27.80;62.90;;;;;;5036947;28;20041;-56
2022/08/21 11:46:11;;;;;;;2.53;0.80;;;27.70;62.70;;;;;;5036742;28;20051;-59
2022/08/21 11:48:48;;;;;;;0.82;0.70;;;27.90;62.70;;;;;;5036246;28;20069;-64
2022/08/21 11:51:33;;;;;;;1.33;0.70;;;28.00;61.70;;;;;;5036753;28;20731;-67
2022/08/21 11:54:11;;;;;;;1.15;0.90;;;28.10;61.00;;;;;;5036278;28;20052;-66
2022/08/21 11:56:44;;;;;;;6.35;1.30;;;28.10;61.50;;;;;;5034572;28;20799;-66
2022/08/21 11:59:43;;;;;;;1.30;0.75;;;28.20;60.70;;;;;;5016151;28;20070;-66
2022/08/21 12:02:15;;;;;;;0.68;0.63;;;28.20;59.80;;;;;;5020254;28;20061;-66
2022/08/21 12:04:56;;;;;;;0.65;0.60;;;28.20;60.00;;;;;;5027870;28;20064;-66
2022/08/21 12:07:41;;;;;;;2.83;1.17;;;28.20;59.40;;;;;;5016992;28;20045;-67
2022/08/21 12:10:12;;;;;;;1.48;0.77;;;28.20;58.40;;;;;;5021543;28;20052;-66
2022/08/21 12:12:42;;;;;;;3.70;1.00;;;28.20;57.90;;;;;;5036554;28;20049;-65
2022/08/21 12:15:20;;;;;;;3.17;0.73;;;28.20;59.00;;;;;;5021337;28;20124;-65
2022/08/21 12:18:43;;;;;;;3.03;0.73;;;28.30;59.00;;;;;;5016690;28;20045;-66
2022/08/21 12:21:26;;;;;;;0.80;0.80;;;28.30;59.40;;;;;;5006081;28;20048;-66
2022/08/21 12:24:13;;;;;;;1.90;0.52;;;28.30;57.30;;;;;;5021212;28;20139;-66
2022/08/21 12:26:59;;;;;;;4.13;0.90;;;28.20;56.10;;;;;;5026393;28;20045;-66
2022/08/21 12:29:35;;;;;;;2.55;0.98;;;28.00;57.60;;;;;;5019394;28;20208;-64
2022/08/21 12:32:24;;;;;;;0.95;0.63;;;27.90;56.50;;;;;;5016345;28;20599;-63
2022/08/21 12:34:57;;;;;;;1.60;0.60;;;27.90;56.70;;;;;;5016655;28;20045;-63
2022/08/21 12:37:33;;;;;;;1.48;0.90;;;27.80;57.70;;;;;;5026293;28;20045;-63
2022/08/21 12:40:02;;;;;;;1.30;0.73;;;27.70;55.30;;;;;;5037115;28;20045;-69
2022/08/21 12:42:58;;;;;;;4.03;0.70;;;27.70;57.30;;;;;;5029862;28;20316;-66
2022/08/21 12:45:46;;;;;;;2.17;1.10;;;27.80;56.60;;;;;;5034963;28;20053;-66
2022/08/21 12:48:46;;;;;;;0.65;0.60;;;28.00;57.20;;;;;;5034301;28;20041;-66
2022/08/21 12:51:22;;;;;;;1.00;0.73;;;27.90;55.80;;;;;;5035877;28;20056;-66
2022/08/21 12:53:53;;;;;;;1.08;0.60;;;28.00;55.10;;;;;;5035140;28;20053;-66
2022/08/21 12:56:26;;;;;;;1.33;0.77;;;28.00;55.50;;;;;;5035103;28;20067;-66
2022/08/21 12:59:10;;;;;;;0.88;0.60;;;28.00;55.50;;;;;;5022959;28;20045;-66
2022/08/21 13:01:51;;;;;;;1.55;0.70;;;28.00;55.30;;;;;;5016220;28;20583;-66
2022/08/21 13:04:26;;;;;;;2.90;0.80;;;28.00;55.50;;;;;;5015793;28;20054;-66
2022/08/21 13:06:58;;;;;;;2.08;0.65;;;28.10;55.90;;;;;;5016520;28;20045;-65
2022/08/21 13:09:28;;;;;;;3.50;0.80;;;28.30;56.20;;;;;;5016440;28;20049;-66
2022/08/21 13:11:57;;;;;;;1.02;0.60;;;28.40;52.50;;;;;;5035402;28;20041;-66
2022/08/21 13:14:37;;;;;;;1.25;0.80;;;28.30;53.80;;;;;;5034086;28;20158;-66
2022/08/21 13:17:13;;;;;;;1.20;0.80;;;28.30;53.60;;;;;;5035716;28;20037;-66
2022/08/21 13:20:25;;;;;;;0.85;0.50;;;28.30;53.90;;;;;;5029649;28;20069;-66
2022/08/21 13:22:52;;;;;;;2.17;1.02;;;28.40;54.10;;;;;;5027102;28;20037;-65
2022/08/21 13:25:21;;;;;;;0.73;0.52;;;28.50;54.80;;;;;;5035645;28;20127;-65